Observations for Trim Patrick St
| Time | AQI | Temp °C | Hum % | Pres Pa | CO μg/m³ | H₂S μg/m³ | NO μg/m³ | NO₂ μg/m³ | O₃ μg/m³ | SO₂ μg/m³ | PM1 μg/m³ | PM2.5 μg/m³ | PM10 μg/m³ |
|---|---|---|---|---|---|---|---|---|---|---|---|---|---|
| Saturday 8 August 2026 | |||||||||||||
| 05:20 | 1 | 14.7 | 74 | 38,460 | 0.24 | 0 | 3.17 | 11.72 | 24.05 | 0 | 4.57 | 7.71 | 8.49 |
| 05:18 | 1 | 14.7 | 74 | 38,460 | 0.23 | 0.52 | 3.19 | 15.54 | 21.38 | 0 | 4.57 | 9.88 | 10.87 |
| 05:15 | 1 | 14.7 | 75 | 38,460 | 0.23 | 0 | 3.12 | 12.76 | 22.6 | 0 | 6.29 | 9.13 | 10.04 |
| 05:14 | 1 | 14.7 | 75 | 38,460 | 0.24 | 0.67 | 3.13 | 14.74 | 20.83 | 0 | 3.71 | 7 | 7.7 |
| 05:13 | 1 | 14.7 | 74 | 38,460 | 0.24 | 0.08 | 3.18 | 18 | 18.89 | 0 | 3.71 | 6.3 | 6.93 |
| 05:12 | 1 | 14.7 | 75 | 38,460 | 0.24 | 0 | 3.13 | 15.03 | 20.06 | 0 | 3.71 | 7 | 7.7 |
| 05:11 | 1 | 14.7 | 74 | 38,460 | 0.23 | 0 | 3.15 | 13.27 | 20.66 | 0 | 3.71 | 7.71 | 8.49 |
| 05:10 | 1 | 14.7 | 74 | 38,460 | 0.23 | 0 | 3.15 | 13.63 | 20.13 | 0 | 4.57 | 8.43 | 9.27 |
| 05:09 | 1 | 14.7 | 75 | 38,460 | 0.23 | 1.22 | 3.06 | 15.3 | 22.59 | 0 | 5.43 | 9.84 | 10.83 |
| 05:06 | 1 | 14.7 | 75 | 38,460 | 0.23 | 0 | 3.06 | 12.6 | 19.72 | 0 | 3.71 | 8.4 | 9.24 |
| 05:05 | 1 | 14.7 | 74 | 38,460 | 0.23 | 0 | 3.11 | 13.98 | 21.23 | 0 | 4.57 | 9.86 | 10.84 |
| 05:04 | 1 | 14.7 | 75 | 38,460 | 0.23 | 0.75 | 3.14 | 14.28 | 21.16 | 0 | 2.86 | 6.98 | 7.68 |
| 05:03 | 1 | 14.7 | 75 | 38,460 | 0.22 | 1.22 | 3.15 | 16.57 | 19.12 | 0 | 3.71 | 7.7 | 8.47 |
| 05:02 | 1 | 14.7 | 74 | 38,460 | 0.23 | 2.73 | 3.19 | 17.59 | 26.96 | 0 | 5.43 | 9.15 | 10.07 |
| 05:01 | 1 | 14.7 | 74 | 38,460 | 0.21 | 2.81 | 3.2 | 19.5 | 18.64 | 0 | 3.71 | 8.45 | 9.29 |
| 05:00 | 1 | 14.7 | 74 | 38,460 | 0.22 | 3.77 | 3.22 | 25.89 | 17.63 | 0 | 2.86 | 7.05 | 7.76 |
| 04:59 | 1 | 14.7 | 72 | 38,460 | 0.23 | 4.08 | 3.27 | 30.84 | 37.92 | 0 | 4.57 | 8.6 | 9.46 |
| 04:58 | 1 | 14.7 | 73 | 38,460 | 0.23 | 2.57 | 3.25 | 25.77 | 21.91 | 0 | 3.71 | 7.81 | 8.59 |
| 04:57 | 1 | 14.7 | 74 | 38,460 | 0.21 | 2.08 | 3.16 | 15.53 | 23.04 | 0 | 4.57 | 9.15 | 10.07 |
| 04:56 | 1 | 14.7 | 74 | 38,460 | 0.22 | 3.2 | 3.14 | 20.67 | 16.53 | 0 | 3.71 | 7.75 | 8.53 |